sensor_id;sensor_type;location;lat;lon;timestamp;pressure;altitude;pressure_sealevel;temperature;humidity
66176;BME280;52977;44.816;20.538;2022-08-19T00:01:51;99131.75;;;30.04;37.70
66176;BME280;52977;44.816;20.538;2022-08-19T00:04:20;99139.72;;;30.06;38.03
66176;BME280;52977;44.816;20.538;2022-08-19T00:06:47;99140.53;;;30.06;38.20
66176;BME280;52977;44.816;20.538;2022-08-19T00:09:15;99119.44;;;29.92;37.75
66176;BME280;52977;44.816;20.538;2022-08-19T00:11:41;99137.38;;;30.04;37.63
66176;BME280;52977;44.816;20.538;2022-08-19T00:14:09;99129.25;;;30.06;37.75
66176;BME280;52977;44.816;20.538;2022-08-19T00:16:37;99127.69;;;30.05;37.81
66176;BME280;52977;44.816;20.538;2022-08-19T00:19:04;99110.66;;;29.90;37.96
66176;BME280;52977;44.816;20.538;2022-08-19T00:21:30;99129.88;;;30.01;38.05
66176;BME280;52977;44.816;20.538;2022-08-19T00:23:56;99120.66;;;29.91;38.00
66176;BME280;52977;44.816;20.538;2022-08-19T00:26:27;99135.34;;;29.95;38.10
66176;BME280;52977;44.816;20.538;2022-08-19T00:28:53;99125.53;;;29.91;38.40
66176;BME280;52977;44.816;20.538;2022-08-19T00:31:19;99124.56;;;29.85;39.43
66176;BME280;52977;44.816;20.538;2022-08-19T00:33:45;99119.06;;;29.72;39.81
66176;BME280;52977;44.816;20.538;2022-08-19T00:36:11;99096.41;;;29.57;40.01
66176;BME280;52977;44.816;20.538;2022-08-19T00:38:38;99127.97;;;29.70;41.03
66176;BME280;52977;44.816;20.538;2022-08-19T00:41:17;99132.50;;;29.67;41.18
66176;BME280;52977;44.816;20.538;2022-08-19T00:44:15;99128.28;;;29.54;44.76
66176;BME280;52977;44.816;20.538;2022-08-19T00:46:44;99129.19;;;29.41;47.65
66176;BME280;52977;44.816;20.538;2022-08-19T00:49:18;99129.97;;;29.32;48.46
66176;BME280;52977;44.816;20.538;2022-08-19T00:51:47;99102.88;;;29.07;48.67
66176;BME280;52977;44.816;20.538;2022-08-19T00:54:15;99128.31;;;29.13;50.84
66176;BME280;52977;44.816;20.538;2022-08-19T00:56:41;99119.56;;;29.02;51.38
66176;BME280;52977;44.816;20.538;2022-08-19T00:59:08;99119.69;;;28.98;51.36
66176;BME280;52977;44.816;20.538;2022-08-19T01:01:40;99122.59;;;28.85;53.55
66176;BME280;52977;44.816;20.538;2022-08-19T01:04:06;99115.13;;;28.82;53.63
66176;BME280;52977;44.816;20.538;2022-08-19T01:06:33;99115.88;;;28.83;53.41
66176;BME280;52977;44.816;20.538;2022-08-19T01:09:00;99108.09;;;28.77;51.19
66176;BME280;52977;44.816;20.538;2022-08-19T01:11:27;99103.25;;;28.78;48.42
66176;BME280;52977;44.816;20.538;2022-08-19T01:13:54;99106.88;;;28.88;48.04
66176;BME280;52977;44.816;20.538;2022-08-19T01:16:22;99113.13;;;28.92;48.04
66176;BME280;52977;44.816;20.538;2022-08-19T01:18:49;99110.63;;;28.94;46.64
66176;BME280;52977;44.816;20.538;2022-08-19T01:21:32;99094.47;;;28.76;45.96
66176;BME280;52977;44.816;20.538;2022-08-19T01:24:00;99106.06;;;28.78;46.10
66176;BME280;52977;44.816;20.538;2022-08-19T01:26:26;99116.88;;;28.89;46.50
66176;BME280;52977;44.816;20.538;2022-08-19T01:28:55;99123.38;;;28.86;48.89
66176;BME280;52977;44.816;20.538;2022-08-19T01:31:23;99120.72;;;28.82;49.72
66176;BME280;52977;44.816;20.538;2022-08-19T01:33:51;99111.19;;;28.79;50.94
66176;BME280;52977;44.816;20.538;2022-08-19T01:36:30;99113.06;;;28.73;50.02
66176;BME280;52977;44.816;20.538;2022-08-19T01:38:57;99117.88;;;28.73;46.77
66176;BME280;52977;44.816;20.538;2022-08-19T01:41:24;99117.88;;;28.73;47.22
66176;BME280;52977;44.816;20.538;2022-08-19T01:43:51;99108.81;;;28.69;46.96
66176;BME280;52977;44.816;20.538;2022-08-19T01:46:18;99097.66;;;28.56;47.79
66176;BME280;52977;44.816;20.538;2022-08-19T01:48:44;99107.69;;;28.66;47.74
66176;BME280;52977;44.816;20.538;2022-08-19T01:51:12;99109.91;;;28.71;47.26
66176;BME280;52977;44.816;20.538;2022-08-19T01:53:39;99113.50;;;28.72;47.32
66176;BME280;52977;44.816;20.538;2022-08-19T01:56:05;99115.69;;;28.68;46.55
66176;BME280;52977;44.816;20.538;2022-08-19T01:58:54;99117.38;;;28.65;46.43
66176;BME280;52977;44.816;20.538;2022-08-19T02:01:20;99118.03;;;28.69;46.95
66176;BME280;52977;44.816;20.538;2022-08-19T02:03:46;99096.88;;;28.55;46.54
66176;BME280;52977;44.816;20.538;2022-08-19T02:06:12;99117.69;;;28.67;47.03
66176;BME280;52977;44.816;20.538;2022-08-19T02:08:38;99114.56;;;28.65;46.60
66176;BME280;52977;44.816;20.538;2022-08-19T02:11:05;99116.00;;;28.70;46.60
66176;BME280;52977;44.816;20.538;2022-08-19T02:13:31;99098.31;;;28.60;46.39
66176;BME280;52977;44.816;20.538;2022-08-19T02:15:57;99104.31;;;28.71;46.15
66176;BME280;52977;44.816;20.538;2022-08-19T02:18:23;99111.63;;;28.69;45.54
66176;BME280;52977;44.816;20.538;2022-08-19T02:20:49;99106.72;;;28.60;45.58
66176;BME280;52977;44.816;20.538;2022-08-19T02:23:16;99117.41;;;28.74;44.93
66176;BME280;52977;44.816;20.538;2022-08-19T02:25:44;99122.25;;;28.74;44.76
66176;BME280;52977;44.816;20.538;2022-08-19T02:28:10;99119.56;;;28.70;44.94
66176;BME280;52977;44.816;20.538;2022-08-19T02:30:37;99126.47;;;28.69;44.92
66176;BME280;52977;44.816;20.538;2022-08-19T02:33:04;99036.00;;;28.11;45.13
66176;BME280;52977;44.816;20.538;2022-08-19T02:35:30;99121.75;;;28.66;45.36
66176;BME280;52977;44.816;20.538;2022-08-19T02:37:56;99110.19;;;28.64;45.11
66176;BME280;52977;44.816;20.538;2022-08-19T02:40:40;99119.53;;;28.61;44.99
66176;BME280;52977;44.816;20.538;2022-08-19T02:43:07;99104.31;;;28.49;44.95
66176;BME280;52977;44.816;20.538;2022-08-19T02:45:35;99125.00;;;28.64;44.62
66176;BME280;52977;44.816;20.538;2022-08-19T02:48:02;99115.69;;;28.68;44.30
66176;BME280;52977;44.816;20.538;2022-08-19T02:50:28;99120.84;;;28.69;44.03
66176;BME280;52977;44.816;20.538;2022-08-19T02:52:54;99123.50;;;28.73;43.59
66176;BME280;52977;44.816;20.538;2022-08-19T02:55:19;99119.75;;;28.76;43.26
66176;BME280;52977;44.816;20.538;2022-08-19T02:57:46;99085.50;;;28.59;43.16
66176;BME280;52977;44.816;20.538;2022-08-19T03:00:13;99118.38;;;28.80;43.24
66176;BME280;52977;44.816;20.538;2022-08-19T03:02:39;99111.78;;;28.74;43.63
66176;BME280;52977;44.816;20.538;2022-08-19T03:05:06;99108.22;;;28.74;43.64
66176;BME280;52977;44.816;20.538;2022-08-19T03:07:32;99104.47;;;28.68;43.47
66176;BME280;52977;44.816;20.538;2022-08-19T03:09:58;99105.06;;;28.72;43.52
66176;BME280;52977;44.816;20.538;2022-08-19T03:12:23;99105.06;;;28.72;43.65
66176;BME280;52977;44.816;20.538;2022-08-19T03:14:49;99110.84;;;28.68;44.13
66176;BME280;52977;44.816;20.538;2022-08-19T03:17:16;99113.47;;;28.62;44.14
66176;BME280;52977;44.816;20.538;2022-08-19T03:19:41;99118.25;;;28.62;44.48
66176;BME280;52977;44.816;20.538;2022-08-19T03:22:08;99099.03;;;28.51;44.38
66176;BME280;52977;44.816;20.538;2022-08-19T03:24:34;99103.72;;;28.54;44.61
66176;BME280;52977;44.816;20.538;2022-08-19T03:27:00;99091.81;;;28.41;44.93
66176;BME280;52977;44.816;20.538;2022-08-19T03:29:28;99112.91;;;28.55;45.04
66176;BME280;52977;44.816;20.538;2022-08-19T03:31:55;99120.22;;;28.52;45.17
66176;BME280;52977;44.816;20.538;2022-08-19T03:34:24;99118.81;;;28.47;45.34
66176;BME280;52977;44.816;20.538;2022-08-19T03:36:52;99110.22;;;28.42;45.36
66176;BME280;52977;44.816;20.538;2022-08-19T03:39:20;99099.53;;;28.27;45.81
66176;BME280;52977;44.816;20.538;2022-08-19T03:41:47;99110.59;;;28.31;45.98
66176;BME280;52977;44.816;20.538;2022-08-19T03:44:18;99123.28;;;28.36;45.88
66176;BME280;52977;44.816;20.538;2022-08-19T03:46:51;99120.94;;;28.34;46.11
66176;BME280;52977;44.816;20.538;2022-08-19T03:49:17;99099.94;;;28.17;46.29
66176;BME280;52977;44.816;20.538;2022-08-19T03:51:43;99089.44;;;28.08;46.50
66176;BME280;52977;44.816;20.538;2022-08-19T03:54:12;99121.97;;;28.27;46.56
66176;BME280;52977;44.816;20.538;2022-08-19T03:56:40;99132.41;;;28.27;46.56
66176;BME280;52977;44.816;20.538;2022-08-19T03:59:09;99140.38;;;28.28;46.43
66176;BME280;52977;44.816;20.538;2022-08-19T04:01:36;99126.41;;;28.16;46.63
66176;BME280;52977;44.816;20.538;2022-08-19T04:04:02;99124.84;;;28.14;46.90
66176;BME280;52977;44.816;20.538;2022-08-19T04:06:30;99145.13;;;28.19;46.89
66176;BME280;52977;44.816;20.538;2022-08-19T04:08:57;99143.25;;;28.16;46.87
66176;BME280;52977;44.816;20.538;2022-08-19T04:11:27;99136.06;;;28.14;46.77
66176;BME280;52977;44.816;20.538;2022-08-19T04:13:54;99149.19;;;28.18;46.49
66176;BME280;52977;44.816;20.538;2022-08-19T04:16:21;99138.44;;;28.16;46.59
66176;BME280;52977;44.816;20.538;2022-08-19T04:18:48;99133.88;;;28.09;46.73
66176;BME280;52977;44.816;20.538;2022-08-19T04:21:22;99150.44;;;28.17;46.86
66176;BME280;52977;44.816;20.538;2022-08-19T04:23:48;99143.13;;;28.19;46.99
66176;BME280;52977;44.816;20.538;2022-08-19T04:26:19;99122.63;;;28.09;47.14
66176;BME280;52977;44.816;20.538;2022-08-19T04:28:45;99147.81;;;28.22;47.19
66176;BME280;52977;44.816;20.538;2022-08-19T04:31:17;99145.47;;;28.21;47.49
66176;BME280;52977;44.816;20.538;2022-08-19T04:33:43;99137.97;;;28.18;47.36
66176;BME280;52977;44.816;20.538;2022-08-19T04:36:17;99121.19;;;28.05;47.40
66176;BME280;52977;44.816;20.538;2022-08-19T04:38:47;99108.78;;;27.93;47.67
66176;BME280;52977;44.816;20.538;2022-08-19T04:41:13;99147.53;;;28.07;48.12
66176;BME280;52977;44.816;20.538;2022-08-19T04:43:57;99142.63;;;27.99;48.33
66176;BME280;52977;44.816;20.538;2022-08-19T04:46:22;99148.47;;;28.04;48.92
66176;BME280;52977;44.816;20.538;2022-08-19T04:48:48;99128.41;;;27.93;48.94
66176;BME280;52977;44.816;20.538;2022-08-19T04:51:14;99152.84;;;28.05;49.83
66176;BME280;52977;44.816;20.538;2022-08-19T04:53:41;99142.44;;;27.93;52.28
66176;BME280;52977;44.816;20.538;2022-08-19T04:56:09;99149.88;;;27.87;53.22
66176;BME280;52977;44.816;20.538;2022-08-19T04:58:36;99142.34;;;27.84;54.18
66176;BME280;52977;44.816;20.538;2022-08-19T05:01:03;99149.22;;;27.83;54.41
66176;BME280;52977;44.816;20.538;2022-08-19T05:03:29;99146.72;;;27.85;54.85
66176;BME280;52977;44.816;20.538;2022-08-19T05:06:07;99123.13;;;27.60;55.71
66176;BME280;52977;44.816;20.538;2022-08-19T05:08:34;99142.38;;;27.71;56.29
66176;BME280;52977;44.816;20.538;2022-08-19T05:11:22;99133.22;;;27.70;56.41
66176;BME280;52977;44.816;20.538;2022-08-19T05:13:49;99133.00;;;27.65;57.57
66176;BME280;52977;44.816;20.538;2022-08-19T05:16:17;99125.38;;;27.65;57.70
66176;BME280;52977;44.816;20.538;2022-08-19T05:18:43;99136.56;;;27.65;57.97
66176;BME280;52977;44.816;20.538;2022-08-19T05:21:28;99135.16;;;27.60;58.43
66176;BME280;52977;44.816;20.538;2022-08-19T05:24:14;99134.47;;;27.56;58.89
66176;BME280;52977;44.816;20.538;2022-08-19T05:26:42;99100.34;;;27.36;58.55
66176;BME280;52977;44.816;20.538;2022-08-19T05:29:08;99137.94;;;27.60;58.56
66176;BME280;52977;44.816;20.538;2022-08-19T05:31:35;99134.03;;;27.58;58.34
66176;BME280;52977;44.816;20.538;2022-08-19T05:34:02;99137.94;;;27.60;58.75
66176;BME280;52977;44.816;20.538;2022-08-19T05:36:33;99150.28;;;27.63;58.57
66176;BME280;52977;44.816;20.538;2022-08-19T05:39:00;99144.22;;;27.65;58.90
66176;BME280;52977;44.816;20.538;2022-08-19T05:41:26;99141.06;;;27.62;59.43
66176;BME280;52977;44.816;20.538;2022-08-19T05:43:56;99148.25;;;27.63;60.04
66176;BME280;52977;44.816;20.538;2022-08-19T05:46:22;99144.66;;;27.63;60.20
66176;BME280;52977;44.816;20.538;2022-08-19T05:48:48;99143.56;;;27.60;60.29
66176;BME280;52977;44.816;20.538;2022-08-19T05:51:14;99142.28;;;27.61;60.31
66176;BME280;52977;44.816;20.538;2022-08-19T05:53:42;99142.19;;;27.65;60.31
66176;BME280;52977;44.816;20.538;2022-08-19T05:56:10;99145.75;;;27.66;60.54
66176;BME280;52977;44.816;20.538;2022-08-19T05:58:37;99142.75;;;27.60;60.83
66176;BME280;52977;44.816;20.538;2022-08-19T06:01:04;99144.00;;;27.59;61.02
66176;BME280;52977;44.816;20.538;2022-08-19T06:03:35;99147.59;;;27.59;60.98
66176;BME280;52977;44.816;20.538;2022-08-19T06:06:06;99143.22;;;27.58;61.40
66176;BME280;52977;44.816;20.538;2022-08-19T06:08:34;99138.41;;;27.59;61.43
66176;BME280;52977;44.816;20.538;2022-08-19T06:11:36;99136.81;;;27.58;61.61
66176;BME280;52977;44.816;20.538;2022-08-19T06:14:06;99127.66;;;27.57;61.40
66176;BME280;52977;44.816;20.538;2022-08-19T06:16:35;99147.34;;;27.67;61.13
66176;BME280;52977;44.816;20.538;2022-08-19T06:19:05;99151.56;;;27.71;60.16
66176;BME280;52977;44.816;20.538;2022-08-19T06:21:32;99155.28;;;27.68;59.90
66176;BME280;52977;44.816;20.538;2022-08-19T06:23:58;99137.75;;;27.55;59.63
66176;BME280;52977;44.816;20.538;2022-08-19T06:26:25;99161.09;;;27.74;59.48
66176;BME280;52977;44.816;20.538;2022-08-19T06:28:52;99163.91;;;27.74;59.51
66176;BME280;52977;44.816;20.538;2022-08-19T06:31:26;99154.16;;;27.78;59.05
66176;BME280;52977;44.816;20.538;2022-08-19T06:33:52;99154.00;;;27.82;59.03
66176;BME280;52977;44.816;20.538;2022-08-19T06:36:24;99138.56;;;27.77;59.03
66176;BME280;52977;44.816;20.538;2022-08-19T06:38:55;99156.56;;;27.89;59.27
66176;BME280;52977;44.816;20.538;2022-08-19T06:41:24;99150.63;;;27.87;60.11
66176;BME280;52977;44.816;20.538;2022-08-19T06:43:50;99135.63;;;27.81;60.23
66176;BME280;52977;44.816;20.538;2022-08-19T06:46:17;99150.84;;;27.93;60.53
66176;BME280;52977;44.816;20.538;2022-08-19T06:48:46;99148.16;;;27.89;60.86
66176;BME280;52977;44.816;20.538;2022-08-19T06:51:14;99158.94;;;27.91;60.84
66176;BME280;52977;44.816;20.538;2022-08-19T06:53:41;99150.53;;;27.91;60.78
66176;BME280;52977;44.816;20.538;2022-08-19T06:56:11;99144.13;;;27.90;61.60
66176;BME280;52977;44.816;20.538;2022-08-19T06:58:36;99145.53;;;27.73;62.20
66176;BME280;52977;44.816;20.538;2022-08-19T07:01:04;99154.34;;;27.84;61.91
66176;BME280;52977;44.816;20.538;2022-08-19T07:03:31;99128.72;;;27.73;61.89
66176;BME280;52977;44.816;20.538;2022-08-19T07:06:10;99161.75;;;27.91;61.54
66176;BME280;52977;44.816;20.538;2022-08-19T07:08:37;99155.47;;;27.87;62.03
66176;BME280;52977;44.816;20.538;2022-08-19T07:11:07;99161.94;;;27.96;62.47
66176;BME280;52977;44.816;20.538;2022-08-19T07:13:34;99149.72;;;27.90;63.11
66176;BME280;52977;44.816;20.538;2022-08-19T07:16:06;99146.59;;;27.88;63.46
66176;BME280;52977;44.816;20.538;2022-08-19T07:18:32;99171.69;;;28.05;63.44
66176;BME280;52977;44.816;20.538;2022-08-19T07:21:06;99164.84;;;28.06;62.91
66176;BME280;52977;44.816;20.538;2022-08-19T07:23:32;99170.78;;;28.08;63.41
66176;BME280;52977;44.816;20.538;2022-08-19T07:26:06;99160.78;;;28.07;62.80
66176;BME280;52977;44.816;20.538;2022-08-19T07:28:32;99162.22;;;28.11;61.79
66176;BME280;52977;44.816;20.538;2022-08-19T07:30:58;99168.69;;;28.21;61.35
66176;BME280;52977;44.816;20.538;2022-08-19T07:33:23;99156.53;;;28.24;60.91
66176;BME280;52977;44.816;20.538;2022-08-19T07:35:49;99169.06;;;28.33;60.31
66176;BME280;52977;44.816;20.538;2022-08-19T07:38:15;99168.84;;;28.40;59.50
66176;BME280;52977;44.816;20.538;2022-08-19T07:40:42;99170.38;;;28.41;59.06
66176;BME280;52977;44.816;20.538;2022-08-19T07:43:08;99177.19;;;28.53;58.46
66176;BME280;52977;44.816;20.538;2022-08-19T07:45:34;99166.13;;;28.58;58.40
66176;BME280;52977;44.816;20.538;2022-08-19T07:48:00;99157.72;;;28.58;57.98
66176;BME280;52977;44.816;20.538;2022-08-19T07:50:26;99164.78;;;28.63;57.53
66176;BME280;52977;44.816;20.538;2022-08-19T07:52:52;99171.03;;;28.67;56.90
66176;BME280;52977;44.816;20.538;2022-08-19T07:55:22;99157.47;;;28.66;57.66
66176;BME280;52977;44.816;20.538;2022-08-19T07:57:48;99170.75;;;28.74;57.08
66176;BME280;52977;44.816;20.538;2022-08-19T08:00:14;99170.47;;;28.81;57.26
66176;BME280;52977;44.816;20.538;2022-08-19T08:02:40;99130.63;;;28.64;57.19
66176;BME280;52977;44.816;20.538;2022-08-19T08:05:08;99149.47;;;28.86;57.66
66176;BME280;52977;44.816;20.538;2022-08-19T08:07:52;99139.94;;;28.84;57.61
66176;BME280;52977;44.816;20.538;2022-08-19T08:10:37;99132.31;;;28.93;58.04
66176;BME280;52977;44.816;20.538;2022-08-19T08:13:03;99128.75;;;28.93;57.42
66176;BME280;52977;44.816;20.538;2022-08-19T08:15:30;99060.91;;;28.63;56.98
66176;BME280;52977;44.816;20.538;2022-08-19T08:17:56;99128.63;;;29.06;55.49
66176;BME280;52977;44.816;20.538;2022-08-19T08:20:23;99117.97;;;29.01;55.52
66176;BME280;52977;44.816;20.538;2022-08-19T08:22:49;99114.41;;;29.00;55.80
66176;BME280;52977;44.816;20.538;2022-08-19T08:25:35;99125.38;;;29.17;57.00
66176;BME280;52977;44.816;20.538;2022-08-19T08:28:01;99129.59;;;29.21;56.27
66176;BME280;52977;44.816;20.538;2022-08-19T08:30:28;99123.84;;;29.25;55.83
66176;BME280;52977;44.816;20.538;2022-08-19T08:32:55;99108.53;;;29.17;55.17
66176;BME280;52977;44.816;20.538;2022-08-19T08:35:23;99122.31;;;29.33;55.54
66176;BME280;52977;44.816;20.538;2022-08-19T08:37:50;99124.84;;;29.40;54.57
66176;BME280;52977;44.816;20.538;2022-08-19T08:40:30;99127.47;;;29.44;53.69
66176;BME280;52977;44.816;20.538;2022-08-19T08:43:28;99125.91;;;29.43;53.80
66176;BME280;52977;44.816;20.538;2022-08-19T08:46:06;99135.78;;;29.47;54.18
66176;BME280;52977;44.816;20.538;2022-08-19T08:48:57;99143.75;;;29.49;54.26
66176;BME280;52977;44.816;20.538;2022-08-19T08:51:43;99134.84;;;29.51;54.07
66176;BME280;52977;44.816;20.538;2022-08-19T08:54:12;99144.84;;;29.61;54.02
66176;BME280;52977;44.816;20.538;2022-08-19T08:56:41;99135.03;;;29.65;53.14
66176;BME280;52977;44.816;20.538;2022-08-19T08:59:16;99142.19;;;29.66;52.71
66176;BME280;52977;44.816;20.538;2022-08-19T09:01:44;99136.72;;;29.63;53.04
66176;BME280;52977;44.816;20.538;2022-08-19T09:04:12;99146.72;;;29.73;52.83
66176;BME280;52977;44.816;20.538;2022-08-19T09:09:40;99136.09;;;29.77;52.71
66176;BME280;52977;44.816;20.538;2022-08-19T09:12:10;99136.78;;;29.91;53.02
66176;BME280;52977;44.816;20.538;2022-08-19T09:17:13;99133.47;;;30.02;51.64
66176;BME280;52977;44.816;20.538;2022-08-19T09:19:51;99122.06;;;30.05;51.35
66176;BME280;52977;44.816;20.538;2022-08-19T09:22:18;99111.91;;;29.98;51.95
66176;BME280;52977;44.816;20.538;2022-08-19T09:24:50;99109.25;;;30.13;50.99
66176;BME280;52977;44.816;20.538;2022-08-19T09:27:18;99117.34;;;30.21;50.18
66176;BME280;52977;44.816;20.538;2022-08-19T09:29:45;99100.31;;;30.24;50.28
66176;BME280;52977;44.816;20.538;2022-08-19T09:32:13;99108.28;;;30.26;49.96
66176;BME280;52977;44.816;20.538;2022-08-19T09:34:39;99089.06;;;30.24;49.40
66176;BME280;52977;44.816;20.538;2022-08-19T09:37:05;99104.19;;;30.36;49.24
66176;BME280;52977;44.816;20.538;2022-08-19T09:39:30;99117.78;;;30.47;49.26
66176;BME280;52977;44.816;20.538;2022-08-19T09:41:56;99115.88;;;30.62;48.17
66176;BME280;52977;44.816;20.538;2022-08-19T09:44:22;99116.47;;;30.66;47.18
66176;BME280;52977;44.816;20.538;2022-08-19T09:46:49;99108.66;;;30.71;46.84
66176;BME280;52977;44.816;20.538;2022-08-19T09:49:16;99111.94;;;30.69;47.07
66176;BME280;52977;44.816;20.538;2022-08-19T09:51:42;99072.13;;;30.52;46.60
66176;BME280;52977;44.816;20.538;2022-08-19T09:54:08;99102.91;;;30.89;46.42
66176;BME280;52977;44.816;20.538;2022-08-19T09:56:33;99102.88;;;30.98;45.84
66176;BME280;52977;44.816;20.538;2022-08-19T09:59:00;99099.94;;;30.93;46.50
66176;BME280;52977;44.816;20.538;2022-08-19T10:01:28;99092.38;;;30.99;45.98
66176;BME280;52977;44.816;20.538;2022-08-19T10:03:55;99094.72;;;31.00;45.70
66176;BME280;52977;44.816;20.538;2022-08-19T10:06:23;99107.44;;;31.05;46.02
66176;BME280;52977;44.816;20.538;2022-08-19T10:08:50;99093.94;;;31.09;45.13
66176;BME280;52977;44.816;20.538;2022-08-19T10:11:17;99087.47;;;31.18;45.19
66176;BME280;52977;44.816;20.538;2022-08-19T10:13:44;99075.88;;;31.16;44.64
66176;BME280;52977;44.816;20.538;2022-08-19T10:16:12;99075.56;;;31.38;42.62
66176;BME280;52977;44.816;20.538;2022-08-19T10:18:39;99072.38;;;31.45;43.08
66176;BME280;52977;44.816;20.538;2022-08-19T10:23:39;99073.09;;;31.55;44.07
66176;BME280;52977;44.816;20.538;2022-08-19T10:26:06;99082.31;;;31.65;42.53
66176;BME280;52977;44.816;20.538;2022-08-19T10:28:36;99048.78;;;31.58;42.09
66176;BME280;52977;44.816;20.538;2022-08-19T10:31:08;99069.84;;;31.72;42.32
66176;BME280;52977;44.816;20.538;2022-08-19T10:33:35;99069.00;;;31.80;41.83
66176;BME280;52977;44.816;20.538;2022-08-19T10:36:03;99080.41;;;31.86;42.08
66176;BME280;52977;44.816;20.538;2022-08-19T10:38:29;99067.06;;;31.86;42.36
66176;BME280;52977;44.816;20.538;2022-08-19T10:40:57;99058.78;;;31.83;42.21
66176;BME280;52977;44.816;20.538;2022-08-19T10:43:23;99070.84;;;31.98;41.76
66176;BME280;52977;44.816;20.538;2022-08-19T10:45:54;99073.97;;;32.00;41.47
66176;BME280;52977;44.816;20.538;2022-08-19T10:48:24;99072.91;;;31.98;41.44
66176;BME280;52977;44.816;20.538;2022-08-19T10:50:50;99061.91;;;31.85;42.05
66176;BME280;52977;44.816;20.538;2022-08-19T10:53:34;99073.66;;;31.98;42.22
66176;BME280;52977;44.816;20.538;2022-08-19T10:56:00;99030.34;;;31.72;42.08
66176;BME280;52977;44.816;20.538;2022-08-19T10:58:44;99059.38;;;32.02;41.61
66176;BME280;52977;44.816;20.538;2022-08-19T11:01:10;99070.88;;;32.13;41.53
66176;BME280;52977;44.816;20.538;2022-08-19T11:03:35;99059.28;;;32.11;41.34
66176;BME280;52977;44.816;20.538;2022-08-19T11:06:04;99051.63;;;32.27;40.46
66176;BME280;52977;44.816;20.538;2022-08-19T11:08:30;99052.00;;;32.34;39.62
66176;BME280;52977;44.816;20.538;2022-08-19T11:10:59;99043.81;;;32.36;38.82
66176;BME280;52977;44.816;20.538;2022-08-19T11:13:31;99044.59;;;32.37;39.39
66176;BME280;52977;44.816;20.538;2022-08-19T11:16:02;99033.28;;;32.52;38.77
66176;BME280;52977;44.816;20.538;2022-08-19T11:18:28;99017.81;;;32.47;38.87
66176;BME280;52977;44.816;20.538;2022-08-19T11:20:54;99021.50;;;32.53;39.26
66176;BME280;52977;44.816;20.538;2022-08-19T11:23:20;99040.34;;;32.62;39.16
66176;BME280;52977;44.816;20.538;2022-08-19T11:25:46;99037.72;;;32.74;38.42
66176;BME280;52977;44.816;20.538;2022-08-19T11:28:12;99021.28;;;32.72;38.40
66176;BME280;52977;44.816;20.538;2022-08-19T11:30:38;99034.38;;;32.90;37.80
66176;BME280;52977;44.816;20.538;2022-08-19T11:33:04;99034.84;;;32.88;38.51
66176;BME280;52977;44.816;20.538;2022-08-19T11:35:30;99038.47;;;33.10;37.22
66176;BME280;52977;44.816;20.538;2022-08-19T11:37:55;99037.00;;;33.14;36.98
66176;BME280;52977;44.816;20.538;2022-08-19T11:40:23;99033.97;;;33.18;36.46
66176;BME280;52977;44.816;20.538;2022-08-19T11:42:49;99032.97;;;33.21;36.96
66176;BME280;52977;44.816;20.538;2022-08-19T11:45:22;99019.22;;;33.29;37.28
66176;BME280;52977;44.816;20.538;2022-08-19T11:47:48;99025.88;;;33.26;37.08
66176;BME280;52977;44.816;20.538;2022-08-19T11:50:14;99031.84;;;33.33;36.65
66176;BME280;52977;44.816;20.538;2022-08-19T11:52:40;99023.44;;;33.39;36.38
66176;BME280;52977;44.816;20.538;2022-08-19T11:55:06;99030.44;;;33.44;35.67
66176;BME280;52977;44.816;20.538;2022-08-19T11:57:32;99024.84;;;33.49;34.97
66176;BME280;52977;44.816;20.538;2022-08-19T11:59:58;99026.69;;;33.52;35.43
66176;BME280;52977;44.816;20.538;2022-08-19T12:02:24;98988.22;;;33.40;35.29
66176;BME280;52977;44.816;20.538;2022-08-19T12:04:50;99003.59;;;33.60;35.01
66176;BME280;52977;44.816;20.538;2022-08-19T12:07:16;99013.47;;;33.70;35.59
66176;BME280;52977;44.816;20.538;2022-08-19T12:09:42;99025.66;;;33.76;35.09
66176;BME280;52977;44.816;20.538;2022-08-19T12:12:08;98995.84;;;33.54;35.02
66176;BME280;52977;44.816;20.538;2022-08-19T12:14:34;99019.31;;;33.81;35.18
66176;BME280;52977;44.816;20.538;2022-08-19T12:17:00;99026.84;;;33.90;34.08
66176;BME280;52977;44.816;20.538;2022-08-19T12:19:27;99018.09;;;33.94;33.00
66176;BME280;52977;44.816;20.538;2022-08-19T12:21:58;99002.84;;;33.85;33.72
66176;BME280;52977;44.816;20.538;2022-08-19T12:24:26;99008.44;;;34.06;33.18
66176;BME280;52977;44.816;20.538;2022-08-19T12:26:51;99018.81;;;34.15;33.63
66176;BME280;52977;44.816;20.538;2022-08-19T12:29:18;99015.25;;;34.20;33.77
66176;BME280;52977;44.816;20.538;2022-08-19T12:31:44;99012.97;;;34.24;33.21
66176;BME280;52977;44.816;20.538;2022-08-19T12:34:09;99003.88;;;34.14;32.69
66176;BME280;52977;44.816;20.538;2022-08-19T12:36:35;99006.19;;;34.16;32.97
66176;BME280;52977;44.816;20.538;2022-08-19T12:39:01;99009.13;;;34.27;32.92
66176;BME280;52977;44.816;20.538;2022-08-19T12:41:26;99012.00;;;34.33;33.02
66176;BME280;52977;44.816;20.538;2022-08-19T12:43:52;99010.19;;;34.30;33.30
66176;BME280;52977;44.816;20.538;2022-08-19T12:46:19;98987.94;;;34.17;33.58
66176;BME280;52977;44.816;20.538;2022-08-19T12:48:45;99011.28;;;34.38;33.38
66176;BME280;52977;44.816;20.538;2022-08-19T12:51:13;99008.75;;;34.40;32.80
66176;BME280;52977;44.816;20.538;2022-08-19T12:53:40;98996.59;;;34.34;33.34
66176;BME280;52977;44.816;20.538;2022-08-19T12:56:07;98984.94;;;34.26;33.74
66176;BME280;52977;44.816;20.538;2022-08-19T12:58:33;98987.41;;;34.45;33.74
66176;BME280;52977;44.816;20.538;2022-08-19T13:01:05;98993.84;;;34.51;33.42
66176;BME280;52977;44.816;20.538;2022-08-19T13:03:31;98984.41;;;34.60;33.41
66176;BME280;52977;44.816;20.538;2022-08-19T13:05:57;98973.25;;;34.50;33.63